»·PEaware :: N516DM KOTH-KEUG

N516DM :: KOTH-KEUG

FLIGHT INFORMATION

Flight Status: Arrived
Operator: Privately registered:
United States
More flights under this callsign
Pilot: Bruno O. (13284)
Aircraft: CESSNA 182 SKYLANE
(C182)
More flights by this aircraft type
Origin: KOTH North Bend Mun
United States
Destination: KEUG Mahlon Sweet
United States
More flights between these airports :: More routes between these airports
Route: +OTH6 SCOTY V121 EUG
File this flight plan on PilotEdge
Remarks:
Altitude:
(Current/Filed)
7,000ft
Speed:
(Current/Filed)
120kts
Departed: 08-Nov-17 01:54 PM
Arrived: 08-Nov-17 02:32 PM
Distance/Time
Traveled:
61nm/0:38
Distance/Time
To Go:
Arrived

Flight Plot

Page will automatically refresh every two minutes.

Flight plan parsing failed; only flown route is shown


Map Options




Map Legend


Flown Route
Filed Route
Departure Airport
Arrival Airport
Navaid (VOR, NDB)
Fix

Horizontal Profiles

Position Reports

Time Latitude Longitude Heading Altitude Ground
Speed
08-Nov-17 13:47 43.417236 -124.247062 57 11ft 0kts
08-Nov-17 13:48 43.417236 -124.247062 57 11ft 0kts
08-Nov-17 13:49 43.417236 -124.247062 57 11ft 0kts
08-Nov-17 13:50 43.417236 -124.247062 57 11ft 0kts
08-Nov-17 13:51 43.417236 -124.247061 57 11ft 0kts
08-Nov-17 13:52 43.417239 -124.247055 57 11ft 0kts
08-Nov-17 13:53 43.417242 -124.247047 57 11ft 0kts
08-Nov-17 13:54 43.417246 -124.247040 57 11ft 0kts
08-Nov-17 13:55 43.417461 -124.246810 1 11ft 6kts
08-Nov-17 13:56 43.419278 -124.246702 60 11ft 0kts
08-Nov-17 13:57 43.419281 -124.246695 60 11ft 0kts
08-Nov-17 13:58 43.419309 -124.246624 60 11ft 4kts
08-Nov-17 13:59 43.408240 -124.236569 161 339ft 83kts
08-Nov-17 14:00 43.409402 -124.263912 292 941ft 103kts
08-Nov-17 14:01 43.425223 -124.293979 343 1713ft 101kts
08-Nov-17 14:02 43.438644 -124.270733 102 2536ft 82kts
08-Nov-17 14:03 43.434828 -124.241178 110 3358ft 77kts
08-Nov-17 14:04 43.433054 -124.211453 110 4140ft 79kts
08-Nov-17 14:05 43.433213 -124.178475 110 4805ft 94kts
08-Nov-17 14:06 43.450517 -124.145861 41 5560ft 134kts
08-Nov-17 14:07 43.482983 -124.118630 49 6231ft 144kts
08-Nov-17 14:08 43.514387 -124.082891 60 6859ft 144kts
08-Nov-17 14:09 43.542247 -124.037559 70 7004ft 167kts
08-Nov-17 14:10 43.568874 -123.983906 77 7001ft 168kts
08-Nov-17 14:11 43.593048 -123.928799 77 7002ft 166kts
08-Nov-17 14:12 43.616836 -123.874853 77 7001ft 164kts
08-Nov-17 14:13 43.640648 -123.821026 77 7008ft 163kts
08-Nov-17 14:14 43.664344 -123.767501 74 7012ft 165kts
08-Nov-17 14:15 43.693701 -123.717029 65 7018ft 172kts
08-Nov-17 14:16 43.725373 -123.666375 63 7023ft 175kts
08-Nov-17 14:17 43.758651 -123.616512 61 7024ft 177kts
08-Nov-17 14:18 43.797160 -123.576615 45 7027ft 185kts
08-Nov-17 14:19 43.839550 -123.535826 44 7035ft 185kts
08-Nov-17 14:20 43.883766 -123.498707 40 7040ft 186kts
08-Nov-17 14:21 43.927756 -123.461621 40 7048ft 185kts
08-Nov-17 14:22 43.969425 -123.421379 49 7058ft 180kts
08-Nov-17 14:23 44.019527 -123.401237 16 7067ft 188kts
08-Nov-17 14:24 44.070814 -123.384787 16 6885ft 198kts
08-Nov-17 14:25 44.126291 -123.367058 15 6194ft 205kts
08-Nov-17 14:26 44.181390 -123.350011 16 5492ft 199kts
08-Nov-17 14:27 44.234541 -123.334004 16 4788ft 190kts
08-Nov-17 14:28 44.285070 -123.319351 16 4087ft 180kts
08-Nov-17 14:29 44.331686 -123.302610 50 3370ft 162kts
08-Nov-17 14:30 44.329162 -123.251635 124 2981ft 123kts
08-Nov-17 14:31 44.301641 -123.226721 155 2991ft 119kts
08-Nov-17 14:32 44.267861 -123.222178 174 2853ft 131kts
08-Nov-17 14:33 44.229595 -123.220279 178 2222ft 137kts
08-Nov-17 14:34 44.192627 -123.220125 175 1429ft 130kts
08-Nov-17 14:35 44.160547 -123.219359 180 936ft 98kts
08-Nov-17 14:36 44.137633 -123.219200 179 464ft 65kts
08-Nov-17 14:37 44.125383 -123.218385 143 372ft 18kts
08-Nov-17 14:38 44.121168 -123.217143 178 372ft 22kts
08-Nov-17 14:39 44.116514 -123.217099 179 372ft 17kts
08-Nov-17 14:40 44.115237 -123.215175 172 372ft 4kts

Navigation Log

Ident Type
Flight plan parsing failed, navigation log unavailable